Aérodrome :
LOGIN :

S'inscrire | Disclaimer

   EN    FR    IT 

 










Légende :    VFR   VFR Marginal   IFR   IFR Intensif   IFR Très Intensif
Visi : 
Plafond : 
>= 8 km
>= 3000ft
5 à 8 km
1000 à 3000 ft
1500m à 5 km
500 à 1000 ft
800 à 1500m
200 à 500 ft
< 800m
< 200 ft
Symboles :   Orages  Brouillard  Fortes neiges  Fortes précipitations  Vent > 20 kt
SIGMETs :   Divers  Orages  Givrage  Turbulence  Onde Orograph.  Cendres Volcan.






- Altitude de l'aérodrome : 273 ft


EGXT - RAF Wittering Stamford

DERNIER METAR :
  • 281250Z 16015KT 5000 RA BKN008 04/04 Q1000 RMK GRN

METARs EXPIRÉS :
  • 281150Z 16017KT 5000 RA BKN006 04/03 Q1002 RMK YLO1
  • 281050Z 16014KT 5000 RA BKN008 OVC015 04/03 Q1004 RMK GRN
  • 281027Z 16015KT 9999 -RA SCT008 OVC100 03/03 Q1005 GRN

TAF TAF EGXT
Valide du 28 à 12h jusqu'au 28 à 18h UTC


281026Z 2812/2818 17016G26KT 9999 BKN014
TEMPO 2812/2818 5000 RA SCT006 BKN008
PROB30
TEMPO 2813/2818 3000 RADZ SCT004 BKN006
BECMG 2815/2817 22015KT



MET'MAP, la Météo Aéronautique d'un coup d'oeil ! - Copyright ORBIFLY Décembre 2007 - Disclaimer

ORBIFLY MET'MAP TEAM :

Programmation & Développement : Alexandra Zaïnal
Sur une idée originale de : Baudouin d'Aumeries
Assistance à la programmation : Marc-Olivier Méhu
Soutien technique & logistique : Manuel Goepfert

Contact : metmap@orbifly.com




SOURCES & CREDITS :

   NOAA